JAL922 ROAH-RJTT
Flight info
| Callsign | JAL922 |
|---|---|
| Flight time | 2h 3m |
| Altitude | 37000 |
| Route | ESKOB3 AMAMI Y574 SHIBK Y57 SUKBO Y571 BILLY Y21 AKSEL AKSELN |
| Aircraft | B738/M-SDE2E3FGHIRWXY/LB1 |
Departure
| Time | 2026-04-22 13:38 |
|---|---|
| Airport | Naha International Airport (ROAH) |
Arrival
| Time | 2026-04-22 15:41 |
|---|---|
| Airport | Tokyo Haneda International Airport (RJTT) |
| Time | Latitude | Longitude | Altitude | Speed | Heading |
|---|---|---|---|---|---|
| 2026-04-22 13:14 | 26.20493 | 127.64832 | 27 ft | 0 kts | 87° |
| 2026-04-22 13:31 | 26.20491 | 127.64805 | 27 ft | 4 kts | 87° |
| 2026-04-22 13:31 | 26.20491 | 127.64782 | 27 ft | 4 kts | 87° |
| 2026-04-22 13:31 | 26.20487 | 127.64756 | 27 ft | 4 kts | 41° |
| 2026-04-22 13:31 | 26.20469 | 127.64752 | 27 ft | 4 kts | 358° |
| 2026-04-22 13:32 | 26.20457 | 127.64753 | 27 ft | 1 kts | 358° |
| 2026-04-22 13:34 | 26.20464 | 127.64752 | 27 ft | 3 kts | 358° |
| 2026-04-22 13:34 | 26.20521 | 127.64750 | 27 ft | 12 kts | 358° |
| 2026-04-22 13:34 | 26.20613 | 127.64746 | 27 ft | 14 kts | 358° |
| 2026-04-22 13:34 | 26.20705 | 127.64741 | 27 ft | 13 kts | 357° |
| 2026-04-22 13:35 | 26.20793 | 127.64737 | 27 ft | 13 kts | 358° |
| 2026-04-22 13:35 | 26.20864 | 127.64731 | 27 ft | 8 kts | 342° |
| 2026-04-22 13:35 | 26.20901 | 127.64687 | 27 ft | 8 kts | 286° |
| 2026-04-22 13:35 | 26.20901 | 127.64627 | 27 ft | 8 kts | 267° |
| 2026-04-22 13:36 | 26.20899 | 127.64569 | 27 ft | 7 kts | 268° |
| 2026-04-22 13:36 | 26.20876 | 127.64526 | 27 ft | 7 kts | 195° |
| 2026-04-22 13:36 | 26.20837 | 127.64528 | 28 ft | 0 kts | 176° |
| 2026-04-22 13:37 | 26.20796 | 127.64530 | 28 ft | 27 kts | 178° |
| 2026-04-22 13:37 | 26.20336 | 127.64552 | 27 ft | 103 kts | 178° |
| 2026-04-22 13:37 | 26.19408 | 127.64612 | 116 ft | 155 kts | 179° |
| 2026-04-22 13:38 | 26.18252 | 127.64655 | 564 ft | 182 kts | 180° |
| 2026-04-22 13:38 | 26.15759 | 127.64771 | 2457 ft | 180 kts | 181° |
| 2026-04-22 13:38 | 26.14402 | 127.64841 | 2795 ft | 210 kts | 181° |
| 2026-04-22 13:39 | 26.12862 | 127.64921 | 3135 ft | 230 kts | 181° |
| 2026-04-22 13:39 | 26.11249 | 127.65005 | 3846 ft | 231 kts | 181° |
| 2026-04-22 13:39 | 26.09631 | 127.65082 | 4502 ft | 236 kts | 182° |
| 2026-04-22 13:39 | 26.07976 | 127.65156 | 5171 ft | 239 kts | 182° |
| 2026-04-22 13:40 | 26.06301 | 127.65229 | 5842 ft | 242 kts | 182° |
| 2026-04-22 13:40 | 26.04605 | 127.65301 | 6325 ft | 257 kts | 181° |
| 2026-04-22 13:40 | 26.02804 | 127.65798 | 6824 ft | 280 kts | 154° |
| 2026-04-22 13:40 | 26.01374 | 127.67324 | 7644 ft | 294 kts | 123° |
| 2026-04-22 13:41 | 26.00818 | 127.69538 | 8445 ft | 306 kts | 92° |
| 2026-04-22 13:41 | 26.00905 | 127.71913 | 9261 ft | 311 kts | 88° |
| 2026-04-22 13:41 | 26.01325 | 127.74296 | 9992 ft | 319 kts | 64° |
| 2026-04-22 13:41 | 26.02600 | 127.76341 | 10529 ft | 331 kts | 49° |
| 2026-04-22 13:42 | 26.04130 | 127.78386 | 10765 ft | 354 kts | 49° |
| 2026-04-22 13:42 | 26.05719 | 127.80488 | 11330 ft | 362 kts | 49° |
| 2026-04-22 13:42 | 26.07340 | 127.82654 | 12066 ft | 366 kts | 49° |
| 2026-04-22 13:42 | 26.08967 | 127.84853 | 12843 ft | 369 kts | 49° |
| 2026-04-22 13:43 | 26.10612 | 127.87095 | 13511 ft | 375 kts | 49° |
| 2026-04-22 13:43 | 26.12266 | 127.89359 | 14152 ft | 379 kts | 49° |
| 2026-04-22 13:43 | 26.13913 | 127.91620 | 14811 ft | 381 kts | 49° |
| 2026-04-22 13:43 | 26.15593 | 127.93925 | 15469 ft | 384 kts | 49° |
| 2026-04-22 13:44 | 26.17390 | 127.96134 | 16078 ft | 386 kts | 37° |
| 2026-04-22 13:44 | 26.19640 | 127.97761 | 16707 ft | 386 kts | 28° |
| 2026-04-22 13:44 | 26.21964 | 127.99285 | 17324 ft | 389 kts | 27° |
| 2026-04-22 13:44 | 26.24308 | 128.00820 | 17908 ft | 394 kts | 28° |
| 2026-04-22 13:45 | 26.26680 | 128.02385 | 18446 ft | 398 kts | 28° |
| 2026-04-22 13:45 | 26.29065 | 128.03973 | 18961 ft | 401 kts | 28° |
| 2026-04-22 13:45 | 26.31464 | 128.05584 | 19467 ft | 405 kts | 28° |
| 2026-04-22 13:45 | 26.33862 | 128.07201 | 19960 ft | 408 kts | 28° |
| 2026-04-22 13:46 | 26.36300 | 128.08850 | 20445 ft | 412 kts | 28° |
| 2026-04-22 13:46 | 26.38763 | 128.10519 | 20923 ft | 416 kts | 27° |
| 2026-04-22 13:46 | 26.41250 | 128.12205 | 21409 ft | 419 kts | 27° |
| 2026-04-22 13:46 | 26.43758 | 128.13907 | 21892 ft | 423 kts | 27° |
| 2026-04-22 13:47 | 26.46281 | 128.15619 | 22349 ft | 426 kts | 27° |
| 2026-04-22 13:47 | 26.48827 | 128.17348 | 22783 ft | 431 kts | 27° |
| 2026-04-22 13:47 | 26.51407 | 128.19100 | 23172 ft | 436 kts | 27° |
| 2026-04-22 13:47 | 26.54000 | 128.20864 | 23673 ft | 437 kts | 27° |
| 2026-04-22 13:48 | 26.56570 | 128.22613 | 24083 ft | 438 kts | 27° |
| 2026-04-22 13:48 | 26.59180 | 128.24389 | 24465 ft | 440 kts | 27° |
| 2026-04-22 13:48 | 26.61801 | 128.26174 | 24857 ft | 443 kts | 27° |
| 2026-04-22 13:48 | 26.64436 | 128.27969 | 25241 ft | 445 kts | 27° |
| 2026-04-22 13:49 | 26.67091 | 128.29778 | 25639 ft | 447 kts | 27° |
| 2026-04-22 13:49 | 26.69580 | 128.31922 | 25969 ft | 458 kts | 45° |
| 2026-04-22 13:49 | 26.71595 | 128.34703 | 26372 ft | 461 kts | 49° |
| 2026-04-22 13:49 | 26.73554 | 128.37559 | 26758 ft | 463 kts | 50° |
| 2026-04-22 13:50 | 26.75521 | 128.40425 | 27106 ft | 466 kts | 49° |
| 2026-04-22 13:50 | 26.77489 | 128.43260 | 27440 ft | 468 kts | 49° |
| 2026-04-22 13:50 | 26.79506 | 128.46130 | 27796 ft | 470 kts | 49° |
| 2026-04-22 13:50 | 26.81540 | 128.49003 | 28151 ft | 472 kts | 48° |
| 2026-04-22 13:51 | 26.83590 | 128.51890 | 28493 ft | 474 kts | 48° |
| 2026-04-22 13:51 | 26.85649 | 128.54789 | 28819 ft | 477 kts | 49° |
| 2026-04-22 13:51 | 26.87719 | 128.57707 | 29110 ft | 480 kts | 49° |
| 2026-04-22 13:51 | 26.89800 | 128.60645 | 29438 ft | 482 kts | 49° |
| 2026-04-22 13:52 | 26.91886 | 128.63589 | 29777 ft | 483 kts | 47° |
| 2026-04-22 13:52 | 26.94259 | 128.66212 | 30028 ft | 477 kts | 30° |
| 2026-04-22 13:52 | 26.97112 | 128.68057 | 30360 ft | 472 kts | 23° |
| 2026-04-22 13:52 | 27.00018 | 128.69764 | 30660 ft | 472 kts | 23° |
| 2026-04-22 13:53 | 27.02943 | 128.71474 | 30888 ft | 475 kts | 23° |
| 2026-04-22 13:53 | 27.05882 | 128.73205 | 31086 ft | 478 kts | 23° |
| 2026-04-22 13:53 | 27.08831 | 128.74960 | 31329 ft | 480 kts | 24° |
| 2026-04-22 13:53 | 27.11773 | 128.76730 | 31690 ft | 479 kts | 24° |
| 2026-04-22 13:54 | 27.14703 | 128.78506 | 32105 ft | 476 kts | 24° |
| 2026-04-22 13:54 | 27.17606 | 128.80272 | 32484 ft | 474 kts | 24° |
| 2026-04-22 13:54 | 27.20468 | 128.82015 | 32809 ft | 474 kts | 24° |
| 2026-04-22 13:54 | 27.23372 | 128.83784 | 33112 ft | 475 kts | 24° |
| 2026-04-22 13:55 | 27.26284 | 128.85558 | 33381 ft | 475 kts | 24° |
| 2026-04-22 13:55 | 27.29192 | 128.87330 | 33725 ft | 474 kts | 24° |
| 2026-04-22 13:55 | 27.32088 | 128.89097 | 34060 ft | 473 kts | 24° |
| 2026-04-22 13:55 | 27.34978 | 128.90860 | 34345 ft | 472 kts | 24° |
| 2026-04-22 13:56 | 27.37863 | 128.92621 | 34616 ft | 471 kts | 24° |
| 2026-04-22 13:56 | 27.40743 | 128.94380 | 34890 ft | 470 kts | 23° |
| 2026-04-22 13:56 | 27.43621 | 128.96138 | 35134 ft | 471 kts | 23° |
| 2026-04-22 13:56 | 27.46501 | 128.97898 | 35340 ft | 472 kts | 23° |
| 2026-04-22 13:57 | 27.49385 | 128.99662 | 35616 ft | 471 kts | 23° |
| 2026-04-22 13:57 | 27.52256 | 129.01420 | 35925 ft | 469 kts | 23° |
| 2026-04-22 13:57 | 27.55083 | 129.03152 | 36195 ft | 468 kts | 23° |
| 2026-04-22 13:57 | 27.57949 | 129.04909 | 36406 ft | 468 kts | 23° |
| 2026-04-22 13:58 | 27.60812 | 129.06664 | 36641 ft | 468 kts | 23° |
| 2026-04-22 13:58 | 27.63665 | 129.08415 | 36890 ft | 467 kts | 22° |
| 2026-04-22 13:58 | 27.69419 | 129.11945 | 36917 ft | 472 kts | 23° |
| 2026-04-22 13:59 | 27.75157 | 129.15475 | 36897 ft | 466 kts | 23° |
| 2026-04-22 13:59 | 27.80804 | 129.18957 | 36917 ft | 462 kts | 23° |
| 2026-04-22 14:00 | 27.86445 | 129.22432 | 36915 ft | 462 kts | 23° |
| 2026-04-22 14:00 | 27.92088 | 129.25912 | 36918 ft | 463 kts | 23° |
| 2026-04-22 14:01 | 27.97713 | 129.29386 | 36917 ft | 464 kts | 23° |
| 2026-04-22 14:01 | 28.03399 | 129.32903 | 36916 ft | 466 kts | 23° |
| 2026-04-22 14:02 | 28.09104 | 129.36437 | 36911 ft | 467 kts | 23° |
| 2026-04-22 14:02 | 28.14827 | 129.39986 | 36911 ft | 469 kts | 23° |
| 2026-04-22 14:03 | 28.20516 | 129.43519 | 36910 ft | 470 kts | 23° |
| 2026-04-22 14:03 | 28.26270 | 129.47096 | 36905 ft | 471 kts | 23° |
| 2026-04-22 14:04 | 28.32023 | 129.50682 | 36901 ft | 472 kts | 24° |
| 2026-04-22 14:04 | 28.37786 | 129.54278 | 36909 ft | 472 kts | 23° |
| 2026-04-22 14:05 | 28.42985 | 129.58804 | 36886 ft | 487 kts | 51° |
| 2026-04-22 14:05 | 28.45415 | 129.65959 | 36905 ft | 493 kts | 82° |
| 2026-04-22 14:06 | 28.45815 | 129.69848 | 36888 ft | 493 kts | 83° |
| 2026-04-22 14:06 | 28.46523 | 129.77552 | 36882 ft | 493 kts | 83° |
| 2026-04-22 14:07 | 28.47303 | 129.85297 | 36887 ft | 492 kts | 83° |
| 2026-04-22 14:07 | 28.48129 | 129.93004 | 36909 ft | 491 kts | 82° |
| 2026-04-22 14:08 | 28.48955 | 130.00714 | 36911 ft | 491 kts | 82° |
| 2026-04-22 14:08 | 28.49773 | 130.08424 | 36914 ft | 490 kts | 82° |
| 2026-04-22 14:08 | 28.50427 | 130.12171 | 36905 ft | 488 kts | 71° |
| 2026-04-22 14:09 | 28.51578 | 130.15788 | 36924 ft | 485 kts | 63° |
| 2026-04-22 14:09 | 28.55035 | 130.22314 | 36931 ft | 480 kts | 51° |
| 2026-04-22 14:10 | 28.58913 | 130.28520 | 36920 ft | 481 kts | 51° |
| 2026-04-22 14:10 | 28.62751 | 130.34760 | 36918 ft | 482 kts | 52° |
| 2026-04-22 14:11 | 28.66542 | 130.41024 | 36917 ft | 483 kts | 52° |
| 2026-04-22 14:11 | 28.70355 | 130.47350 | 36919 ft | 484 kts | 52° |
| 2026-04-22 14:12 | 28.74170 | 130.53678 | 36921 ft | 485 kts | 52° |
| 2026-04-22 14:12 | 28.77995 | 130.60032 | 36917 ft | 486 kts | 52° |
| 2026-04-22 14:13 | 28.81823 | 130.66405 | 36917 ft | 487 kts | 52° |
| 2026-04-22 14:13 | 28.85626 | 130.72747 | 36926 ft | 487 kts | 52° |
| 2026-04-22 14:14 | 28.89458 | 130.79147 | 36918 ft | 488 kts | 52° |
| 2026-04-22 14:14 | 28.93286 | 130.85549 | 36909 ft | 488 kts | 52° |
| 2026-04-22 14:15 | 28.97112 | 130.91959 | 36910 ft | 488 kts | 52° |
| 2026-04-22 14:15 | 29.00914 | 130.98338 | 36910 ft | 488 kts | 52° |
| 2026-04-22 14:16 | 29.04724 | 131.04741 | 36914 ft | 487 kts | 52° |
| 2026-04-22 14:16 | 29.08529 | 131.11144 | 36910 ft | 486 kts | 52° |
| 2026-04-22 14:17 | 29.12330 | 131.17551 | 36921 ft | 485 kts | 52° |
| 2026-04-22 14:17 | 29.16119 | 131.23947 | 36914 ft | 484 kts | 52° |
| 2026-04-22 14:18 | 29.19866 | 131.30284 | 36910 ft | 483 kts | 52° |
| 2026-04-22 14:18 | 29.23634 | 131.36663 | 36910 ft | 482 kts | 52° |
| 2026-04-22 14:19 | 29.27393 | 131.43038 | 36912 ft | 482 kts | 52° |
| 2026-04-22 14:19 | 29.30505 | 131.48324 | 36906 ft | 482 kts | 52° |
| 2026-04-22 14:20 | 29.36125 | 131.57887 | 36908 ft | 482 kts | 52° |
| 2026-04-22 14:20 | 29.39863 | 131.64260 | 36924 ft | 482 kts | 53° |
| 2026-04-22 14:21 | 29.45484 | 131.73866 | 36925 ft | 484 kts | 53° |
| 2026-04-22 14:22 | 29.51090 | 131.83473 | 36926 ft | 486 kts | 53° |
| 2026-04-22 14:23 | 29.56748 | 131.93191 | 36916 ft | 488 kts | 52° |
| 2026-04-22 14:23 | 29.60496 | 131.99642 | 36899 ft | 488 kts | 53° |
| 2026-04-22 14:24 | 29.64266 | 132.06139 | 36911 ft | 488 kts | 53° |
| 2026-04-22 14:24 | 29.68272 | 132.12424 | 36928 ft | 485 kts | 46° |
| 2026-04-22 14:25 | 29.72606 | 132.18389 | 36914 ft | 485 kts | 45° |
| 2026-04-22 14:25 | 29.76954 | 132.24332 | 36912 ft | 484 kts | 46° |
| 2026-04-22 14:26 | 29.81225 | 132.30273 | 36918 ft | 485 kts | 46° |
| 2026-04-22 14:26 | 29.85498 | 132.36283 | 36913 ft | 485 kts | 46° |
| 2026-04-22 14:27 | 29.89762 | 132.42298 | 36901 ft | 484 kts | 46° |
| 2026-04-22 14:27 | 29.94024 | 132.48319 | 36923 ft | 484 kts | 46° |
| 2026-04-22 14:28 | 29.98282 | 132.54338 | 36912 ft | 484 kts | 46° |
| 2026-04-22 14:28 | 30.02537 | 132.60361 | 36913 ft | 484 kts | 46° |
| 2026-04-22 14:29 | 30.06764 | 132.66354 | 36930 ft | 484 kts | 46° |
| 2026-04-22 14:29 | 30.11025 | 132.72404 | 36923 ft | 485 kts | 46° |
| 2026-04-22 14:30 | 30.15284 | 132.78460 | 36917 ft | 485 kts | 46° |
| 2026-04-22 14:30 | 30.19544 | 132.84527 | 36931 ft | 486 kts | 46° |
| 2026-04-22 14:31 | 30.23785 | 132.90575 | 36922 ft | 487 kts | 46° |
| 2026-04-22 14:31 | 30.28057 | 132.96678 | 36917 ft | 488 kts | 46° |
| 2026-04-22 14:32 | 30.32331 | 133.02794 | 36919 ft | 488 kts | 46° |
| 2026-04-22 14:32 | 30.36608 | 133.08922 | 36917 ft | 489 kts | 46° |
| 2026-04-22 14:33 | 30.40892 | 133.15070 | 36917 ft | 490 kts | 46° |
| 2026-04-22 14:33 | 30.45169 | 133.21218 | 36922 ft | 490 kts | 46° |
| 2026-04-22 14:34 | 30.49417 | 133.27334 | 36922 ft | 490 kts | 47° |
| 2026-04-22 14:34 | 30.53700 | 133.33510 | 36914 ft | 489 kts | 47° |
| 2026-04-22 14:35 | 30.57967 | 133.39673 | 36916 ft | 489 kts | 47° |
| 2026-04-22 14:35 | 30.62194 | 133.45787 | 36917 ft | 489 kts | 47° |
| 2026-04-22 14:36 | 30.66442 | 133.51941 | 36919 ft | 488 kts | 47° |
| 2026-04-22 14:36 | 30.70684 | 133.58096 | 36921 ft | 487 kts | 47° |
| 2026-04-22 14:37 | 30.74917 | 133.64248 | 36914 ft | 487 kts | 46° |
| 2026-04-22 14:37 | 30.79150 | 133.70409 | 36925 ft | 486 kts | 46° |
| 2026-04-22 14:38 | 30.83345 | 133.76523 | 36927 ft | 486 kts | 46° |
| 2026-04-22 14:38 | 30.87574 | 133.82695 | 36931 ft | 486 kts | 46° |
| 2026-04-22 14:39 | 30.91793 | 133.88862 | 36929 ft | 486 kts | 46° |
| 2026-04-22 14:39 | 30.95982 | 133.94997 | 36932 ft | 487 kts | 46° |
| 2026-04-22 14:40 | 31.02310 | 134.04282 | 36926 ft | 488 kts | 47° |
| 2026-04-22 14:40 | 31.06533 | 134.10492 | 36935 ft | 488 kts | 47° |
| 2026-04-22 14:41 | 31.10752 | 134.16705 | 36944 ft | 489 kts | 46° |
| 2026-04-22 14:41 | 31.14971 | 134.22927 | 36936 ft | 489 kts | 46° |
| 2026-04-22 14:42 | 31.19167 | 134.29127 | 36941 ft | 489 kts | 47° |
| 2026-04-22 14:42 | 31.23394 | 134.35383 | 36950 ft | 490 kts | 46° |
| 2026-04-22 14:43 | 31.27619 | 134.41644 | 36944 ft | 490 kts | 46° |
| 2026-04-22 14:43 | 31.31841 | 134.47913 | 36947 ft | 490 kts | 47° |
| 2026-04-22 14:44 | 31.36025 | 134.54135 | 36951 ft | 490 kts | 46° |
| 2026-04-22 14:44 | 31.40263 | 134.60447 | 36950 ft | 490 kts | 47° |
| 2026-04-22 14:45 | 31.44451 | 134.66694 | 36952 ft | 490 kts | 47° |
| 2026-04-22 14:45 | 31.48659 | 134.72982 | 36957 ft | 490 kts | 47° |
| 2026-04-22 14:46 | 31.52864 | 134.79275 | 36957 ft | 490 kts | 47° |
| 2026-04-22 14:46 | 31.57066 | 134.85576 | 36977 ft | 490 kts | 47° |
| 2026-04-22 14:47 | 31.61245 | 134.91851 | 36961 ft | 491 kts | 47° |
| 2026-04-22 14:47 | 31.65451 | 134.98177 | 36957 ft | 491 kts | 47° |
| 2026-04-22 14:48 | 31.69652 | 135.04507 | 36963 ft | 491 kts | 47° |
| 2026-04-22 14:48 | 31.73956 | 135.10733 | 36958 ft | 489 kts | 43° |
| 2026-04-22 14:49 | 31.78496 | 135.16617 | 36964 ft | 487 kts | 41° |
| 2026-04-22 14:49 | 31.83088 | 135.22484 | 36964 ft | 487 kts | 42° |
| 2026-04-22 14:50 | 31.87646 | 135.28389 | 36961 ft | 488 kts | 42° |
| 2026-04-22 14:50 | 31.92186 | 135.34328 | 36964 ft | 488 kts | 43° |
| 2026-04-22 14:51 | 31.96718 | 135.40278 | 36979 ft | 488 kts | 43° |
| 2026-04-22 14:51 | 32.01243 | 135.46226 | 36969 ft | 488 kts | 43° |
| 2026-04-22 14:52 | 32.05767 | 135.52178 | 36968 ft | 487 kts | 43° |
| 2026-04-22 14:52 | 32.10292 | 135.58139 | 36985 ft | 487 kts | 43° |
| 2026-04-22 14:53 | 32.14790 | 135.64076 | 36982 ft | 488 kts | 43° |
| 2026-04-22 14:53 | 32.19329 | 135.70076 | 36969 ft | 488 kts | 43° |
| 2026-04-22 14:54 | 32.23846 | 135.76057 | 36976 ft | 488 kts | 43° |
| 2026-04-22 14:54 | 32.28341 | 135.82019 | 36968 ft | 489 kts | 43° |
| 2026-04-22 14:55 | 32.32873 | 135.88040 | 36972 ft | 490 kts | 43° |
| 2026-04-22 14:55 | 32.37412 | 135.94080 | 36971 ft | 491 kts | 43° |
| 2026-04-22 14:56 | 32.41952 | 136.00131 | 36976 ft | 492 kts | 43° |
| 2026-04-22 14:56 | 32.46508 | 136.06196 | 36979 ft | 493 kts | 43° |
| 2026-04-22 14:57 | 32.51049 | 136.12228 | 36975 ft | 494 kts | 43° |
| 2026-04-22 14:57 | 32.55637 | 136.18335 | 36984 ft | 496 kts | 43° |
| 2026-04-22 14:58 | 32.60231 | 136.24463 | 36973 ft | 497 kts | 43° |
| 2026-04-22 14:58 | 32.64802 | 136.30574 | 36969 ft | 498 kts | 43° |
| 2026-04-22 14:59 | 32.69400 | 136.36731 | 36982 ft | 498 kts | 43° |
| 2026-04-22 14:59 | 32.74011 | 136.42916 | 36972 ft | 499 kts | 43° |
| 2026-04-22 15:00 | 32.78611 | 136.49098 | 36965 ft | 499 kts | 43° |
| 2026-04-22 15:00 | 32.83210 | 136.55288 | 36968 ft | 499 kts | 43° |
| 2026-04-22 15:01 | 32.87807 | 136.61486 | 36971 ft | 499 kts | 43° |
| 2026-04-22 15:01 | 32.92401 | 136.67690 | 36962 ft | 499 kts | 43° |
| 2026-04-22 15:02 | 32.96953 | 136.73865 | 36961 ft | 499 kts | 43° |
| 2026-04-22 15:02 | 33.01527 | 136.80086 | 36964 ft | 498 kts | 43° |
| 2026-04-22 15:03 | 33.06092 | 136.86303 | 36960 ft | 497 kts | 43° |
| 2026-04-22 15:03 | 33.10623 | 136.92484 | 36961 ft | 497 kts | 43° |
| 2026-04-22 15:04 | 33.15168 | 136.98695 | 36977 ft | 496 kts | 43° |
| 2026-04-22 15:04 | 33.19710 | 137.04912 | 36961 ft | 497 kts | 42° |
| 2026-04-22 15:05 | 33.24249 | 137.11135 | 36962 ft | 496 kts | 42° |
| 2026-04-22 15:05 | 33.28792 | 137.17365 | 36960 ft | 496 kts | 42° |
| 2026-04-22 15:06 | 33.33326 | 137.23593 | 36959 ft | 496 kts | 42° |
| 2026-04-22 15:06 | 33.37831 | 137.29792 | 36961 ft | 496 kts | 42° |
| 2026-04-22 15:07 | 33.42358 | 137.36035 | 36957 ft | 496 kts | 42° |
| 2026-04-22 15:07 | 33.46898 | 137.42306 | 36955 ft | 497 kts | 42° |
| 2026-04-22 15:08 | 33.51427 | 137.48574 | 36954 ft | 497 kts | 43° |
| 2026-04-22 15:08 | 33.55935 | 137.54823 | 36954 ft | 498 kts | 43° |
| 2026-04-22 15:09 | 33.60445 | 137.61120 | 36962 ft | 500 kts | 45° |
| 2026-04-22 15:09 | 33.64169 | 137.68277 | 36967 ft | 509 kts | 57° |
| 2026-04-22 15:10 | 33.67517 | 137.75816 | 36562 ft | 515 kts | 57° |
| 2026-04-22 15:10 | 33.69200 | 137.79597 | 36160 ft | 510 kts | 57° |
| 2026-04-22 15:10 | 33.70877 | 137.83331 | 35777 ft | 506 kts | 57° |
| 2026-04-22 15:11 | 33.71990 | 137.85789 | 35513 ft | 504 kts | 57° |
| 2026-04-22 15:11 | 33.74210 | 137.90670 | 34987 ft | 500 kts | 57° |
| 2026-04-22 15:11 | 33.75878 | 137.94324 | 34593 ft | 497 kts | 57° |
| 2026-04-22 15:11 | 33.77538 | 137.97963 | 34195 ft | 495 kts | 57° |
| 2026-04-22 15:12 | 33.78655 | 138.00415 | 33915 ft | 494 kts | 57° |
| 2026-04-22 15:12 | 33.80299 | 138.04030 | 33495 ft | 491 kts | 57° |
| 2026-04-22 15:12 | 33.81916 | 138.07592 | 33087 ft | 488 kts | 58° |
| 2026-04-22 15:12 | 33.83537 | 138.11167 | 32692 ft | 485 kts | 58° |
| 2026-04-22 15:13 | 33.85148 | 138.14726 | 32305 ft | 482 kts | 58° |
| 2026-04-22 15:13 | 33.86747 | 138.18260 | 31920 ft | 479 kts | 58° |
| 2026-04-22 15:13 | 33.88335 | 138.21772 | 31543 ft | 476 kts | 58° |
| 2026-04-22 15:13 | 33.89912 | 138.25263 | 31171 ft | 474 kts | 58° |
| 2026-04-22 15:14 | 33.91479 | 138.28738 | 30806 ft | 471 kts | 58° |
| 2026-04-22 15:14 | 33.93037 | 138.32213 | 30463 ft | 468 kts | 59° |
| 2026-04-22 15:14 | 33.94573 | 138.35652 | 30116 ft | 465 kts | 59° |
| 2026-04-22 15:14 | 33.96101 | 138.39081 | 29710 ft | 462 kts | 59° |
| 2026-04-22 15:15 | 33.97613 | 138.42479 | 29298 ft | 459 kts | 59° |
| 2026-04-22 15:15 | 33.99119 | 138.45867 | 28898 ft | 456 kts | 59° |
| 2026-04-22 15:15 | 34.00611 | 138.49221 | 28497 ft | 453 kts | 59° |
| 2026-04-22 15:15 | 34.02074 | 138.52514 | 28108 ft | 450 kts | 59° |
| 2026-04-22 15:16 | 34.03547 | 138.55833 | 27724 ft | 447 kts | 59° |
| 2026-04-22 15:16 | 34.05009 | 138.59128 | 27340 ft | 443 kts | 59° |
| 2026-04-22 15:16 | 34.06458 | 138.62396 | 26961 ft | 441 kts | 59° |
| 2026-04-22 15:16 | 34.07898 | 138.65649 | 26578 ft | 438 kts | 59° |
| 2026-04-22 15:17 | 34.09327 | 138.68879 | 26208 ft | 435 kts | 59° |
| 2026-04-22 15:17 | 34.10749 | 138.72097 | 25831 ft | 433 kts | 59° |
| 2026-04-22 15:17 | 34.12160 | 138.75292 | 25461 ft | 430 kts | 59° |
| 2026-04-22 15:17 | 34.13567 | 138.78483 | 25074 ft | 428 kts | 59° |
| 2026-04-22 15:18 | 34.14962 | 138.81647 | 24709 ft | 426 kts | 59° |
| 2026-04-22 15:18 | 34.16353 | 138.84806 | 24323 ft | 425 kts | 59° |
| 2026-04-22 15:18 | 34.17733 | 138.87943 | 23966 ft | 422 kts | 59° |
| 2026-04-22 15:18 | 34.19111 | 138.91077 | 23579 ft | 421 kts | 59° |
| 2026-04-22 15:19 | 34.20480 | 138.94195 | 23148 ft | 419 kts | 59° |
| 2026-04-22 15:19 | 34.21834 | 138.97298 | 22760 ft | 416 kts | 59° |
| 2026-04-22 15:19 | 34.23169 | 139.00382 | 22380 ft | 413 kts | 59° |
| 2026-04-22 15:19 | 34.24496 | 139.03456 | 22005 ft | 409 kts | 59° |
| 2026-04-22 15:20 | 34.25791 | 139.06456 | 21645 ft | 406 kts | 59° |
| 2026-04-22 15:20 | 34.27093 | 139.09470 | 21298 ft | 403 kts | 59° |
| 2026-04-22 15:20 | 34.28381 | 139.12470 | 20940 ft | 400 kts | 60° |
| 2026-04-22 15:20 | 34.29546 | 139.15514 | 20618 ft | 397 kts | 64° |
| 2026-04-22 15:21 | 34.30612 | 139.18579 | 20313 ft | 394 kts | 65° |
| 2026-04-22 15:21 | 34.31645 | 139.21644 | 19999 ft | 390 kts | 65° |
| 2026-04-22 15:21 | 34.32660 | 139.24663 | 19690 ft | 386 kts | 65° |
| 2026-04-22 15:21 | 34.33675 | 139.27662 | 19385 ft | 383 kts | 65° |
| 2026-04-22 15:22 | 34.34687 | 139.30628 | 19086 ft | 380 kts | 65° |
| 2026-04-22 15:22 | 34.35685 | 139.33537 | 18788 ft | 377 kts | 65° |
| 2026-04-22 15:22 | 34.36686 | 139.36450 | 18477 ft | 374 kts | 65° |
| 2026-04-22 15:22 | 34.37683 | 139.39345 | 18174 ft | 371 kts | 65° |
| 2026-04-22 15:23 | 34.38674 | 139.42226 | 17840 ft | 368 kts | 65° |
| 2026-04-22 15:23 | 34.39653 | 139.45071 | 17522 ft | 365 kts | 65° |
| 2026-04-22 15:23 | 34.40623 | 139.47895 | 17225 ft | 361 kts | 64° |
| 2026-04-22 15:23 | 34.41585 | 139.50700 | 16933 ft | 358 kts | 64° |
| 2026-04-22 15:24 | 34.42534 | 139.53468 | 16654 ft | 354 kts | 64° |
| 2026-04-22 15:24 | 34.43475 | 139.56213 | 16369 ft | 351 kts | 64° |
| 2026-04-22 15:24 | 34.44410 | 139.58945 | 16088 ft | 348 kts | 64° |
| 2026-04-22 15:24 | 34.45336 | 139.61651 | 15813 ft | 346 kts | 64° |
| 2026-04-22 15:25 | 34.46243 | 139.64305 | 15541 ft | 343 kts | 64° |
| 2026-04-22 15:25 | 34.47154 | 139.66972 | 15271 ft | 341 kts | 64° |
| 2026-04-22 15:25 | 34.48066 | 139.69618 | 14999 ft | 338 kts | 61° |
| 2026-04-22 15:25 | 34.49349 | 139.71941 | 14720 ft | 327 kts | 40° |
| 2026-04-22 15:26 | 34.51102 | 139.73608 | 14482 ft | 315 kts | 25° |
| 2026-04-22 15:26 | 34.52972 | 139.74970 | 14243 ft | 312 kts | 24° |
| 2026-04-22 15:26 | 34.54891 | 139.76074 | 13882 ft | 304 kts | 6° |
| 2026-04-22 15:26 | 34.56950 | 139.76358 | 13585 ft | 295 kts | 356° |
| 2026-04-22 15:27 | 34.58998 | 139.76478 | 13293 ft | 293 kts | 355° |
| 2026-04-22 15:27 | 34.61034 | 139.76588 | 13036 ft | 293 kts | 356° |
| 2026-04-22 15:27 | 34.63079 | 139.76709 | 12790 ft | 294 kts | 356° |
| 2026-04-22 15:27 | 34.65127 | 139.76843 | 12546 ft | 295 kts | 357° |
| 2026-04-22 15:28 | 34.67180 | 139.76988 | 12303 ft | 296 kts | 357° |
| 2026-04-22 15:28 | 34.69242 | 139.77142 | 12076 ft | 296 kts | 357° |
| 2026-04-22 15:28 | 34.71302 | 139.77302 | 11825 ft | 297 kts | 358° |
| 2026-04-22 15:28 | 34.73343 | 139.77463 | 11583 ft | 298 kts | 358° |
| 2026-04-22 15:29 | 34.75453 | 139.77633 | 11333 ft | 299 kts | 358° |
| 2026-04-22 15:29 | 34.77506 | 139.77800 | 11087 ft | 300 kts | 358° |
| 2026-04-22 15:29 | 34.79595 | 139.77971 | 10839 ft | 301 kts | 358° |
| 2026-04-22 15:30 | 34.83785 | 139.78316 | 10350 ft | 301 kts | 359° |
| 2026-04-22 15:30 | 34.85875 | 139.78489 | 10113 ft | 300 kts | 359° |
| 2026-04-22 15:30 | 34.87921 | 139.78659 | 9870 ft | 296 kts | 359° |
| 2026-04-22 15:30 | 34.89967 | 139.78830 | 9612 ft | 293 kts | 358° |
| 2026-04-22 15:31 | 34.91988 | 139.78997 | 9375 ft | 289 kts | 358° |
| 2026-04-22 15:31 | 34.93980 | 139.79163 | 9117 ft | 285 kts | 358° |
| 2026-04-22 15:31 | 34.95954 | 139.79327 | 8882 ft | 283 kts | 358° |
| 2026-04-22 15:31 | 34.97914 | 139.79488 | 8652 ft | 281 kts | 359° |
| 2026-04-22 15:32 | 34.99861 | 139.79649 | 8416 ft | 279 kts | 359° |
| 2026-04-22 15:32 | 35.01793 | 139.79809 | 8190 ft | 278 kts | 359° |
| 2026-04-22 15:32 | 35.03723 | 139.79969 | 7964 ft | 277 kts | 359° |
| 2026-04-22 15:32 | 35.05640 | 139.80127 | 7735 ft | 276 kts | 359° |
| 2026-04-22 15:33 | 35.07551 | 139.80286 | 7516 ft | 275 kts | 359° |
| 2026-04-22 15:33 | 35.09463 | 139.80444 | 7289 ft | 275 kts | 360° |
| 2026-04-22 15:33 | 35.11347 | 139.80601 | 7076 ft | 275 kts | 360° |
| 2026-04-22 15:33 | 35.13259 | 139.80759 | 6854 ft | 275 kts | 0° |
| 2026-04-22 15:34 | 35.15167 | 139.80918 | 6620 ft | 275 kts | 0° |
| 2026-04-22 15:34 | 35.17074 | 139.81077 | 6396 ft | 275 kts | 1° |
| 2026-04-22 15:34 | 35.18980 | 139.81235 | 6160 ft | 275 kts | 1° |
| 2026-04-22 15:34 | 35.20892 | 139.81306 | 5880 ft | 273 kts | 350° |
| 2026-04-22 15:35 | 35.22116 | 139.80983 | 5661 ft | 271 kts | 340° |
| 2026-04-22 15:35 | 35.24535 | 139.80133 | 5234 ft | 270 kts | 341° |
| 2026-04-22 15:35 | 35.26331 | 139.79538 | 4909 ft | 271 kts | 342° |
| 2026-04-22 15:35 | 35.28153 | 139.78950 | 4579 ft | 271 kts | 342° |
| 2026-04-22 15:36 | 35.29980 | 139.78374 | 4248 ft | 271 kts | 347° |
| 2026-04-22 15:36 | 35.31850 | 139.78403 | 3916 ft | 273 kts | 16° |
| 2026-04-22 15:36 | 35.33515 | 139.79468 | 3699 ft | 269 kts | 35° |
| 2026-04-22 15:36 | 35.35028 | 139.80858 | 3359 ft | 266 kts | 36° |
| 2026-04-22 15:37 | 35.36456 | 139.82180 | 3112 ft | 256 kts | 36° |
| 2026-04-22 15:37 | 35.37858 | 139.83464 | 2872 ft | 246 kts | 35° |
| 2026-04-22 15:37 | 35.39209 | 139.84693 | 2656 ft | 237 kts | 35° |
| 2026-04-22 15:37 | 35.40510 | 139.85871 | 2448 ft | 228 kts | 35° |
| 2026-04-22 15:38 | 35.41840 | 139.86810 | 2253 ft | 213 kts | 10° |
| 2026-04-22 15:38 | 35.44523 | 139.86877 | 1924 ft | 176 kts | 353° |
| 2026-04-22 15:38 | 35.45604 | 139.86422 | 1803 ft | 159 kts | 324° |
| 2026-04-22 15:39 | 35.46546 | 139.85757 | 1730 ft | 153 kts | 328° |
| 2026-04-22 15:39 | 35.47458 | 139.85135 | 1587 ft | 148 kts | 326° |
| 2026-04-22 15:39 | 35.48351 | 139.84504 | 1393 ft | 148 kts | 327° |
| 2026-04-22 15:39 | 35.49241 | 139.83873 | 1199 ft | 148 kts | 327° |
| 2026-04-22 15:40 | 35.50131 | 139.83240 | 1011 ft | 147 kts | 328° |
| 2026-04-22 15:40 | 35.51018 | 139.82611 | 798 ft | 147 kts | 328° |
| 2026-04-22 15:40 | 35.51912 | 139.81975 | 610 ft | 149 kts | 327° |
| 2026-04-22 15:40 | 35.52807 | 139.81344 | 409 ft | 148 kts | 328° |
| 2026-04-22 15:41 | 35.53686 | 139.80720 | 201 ft | 148 kts | 326° |
| 2026-04-22 15:41 | 35.54571 | 139.80088 | 34 ft | 143 kts | 327° |
| 2026-04-22 15:41 | 35.55277 | 139.79584 | 27 ft | 87 kts | 330° |
| 2026-04-22 15:41 | 35.55633 | 139.79329 | 26 ft | 44 kts | 325° |
| 2026-04-22 15:42 | 35.55798 | 139.79090 | 25 ft | 23 kts | 301° |
| 2026-04-22 15:42 | 35.55868 | 139.78935 | 25 ft | 20 kts | 298° |
| 2026-04-22 15:42 | 35.55977 | 139.78834 | 24 ft | 20 kts | 331° |
| 2026-04-22 15:42 | 35.56094 | 139.78752 | 24 ft | 19 kts | 329° |
| 2026-04-22 15:43 | 35.56206 | 139.78672 | 24 ft | 18 kts | 330° |
| 2026-04-22 15:43 | 35.56315 | 139.78594 | 26 ft | 18 kts | 330° |
| 2026-04-22 15:43 | 35.56391 | 139.78503 | 24 ft | 15 kts | 267° |
| 2026-04-22 15:43 | 35.56344 | 139.78389 | 28 ft | 15 kts | 239° |
| 2026-04-22 15:44 | 35.56293 | 139.78283 | 27 ft | 14 kts | 239° |
| 2026-04-22 15:44 | 35.56244 | 139.78182 | 28 ft | 13 kts | 240° |
| 2026-04-22 15:44 | 35.56199 | 139.78084 | 28 ft | 13 kts | 240° |
| 2026-04-22 15:44 | 35.56154 | 139.77990 | 28 ft | 14 kts | 239° |
| 2026-04-22 15:45 | 35.56098 | 139.77870 | 28 ft | 19 kts | 240° |
| 2026-04-22 15:45 | 35.56026 | 139.77720 | 25 ft | 21 kts | 239° |
| 2026-04-22 15:45 | 35.55956 | 139.77569 | 23 ft | 20 kts | 240° |
| 2026-04-22 15:45 | 35.55886 | 139.77431 | 22 ft | 17 kts | 223° |
| 2026-04-22 15:46 | 35.55780 | 139.77444 | 24 ft | 16 kts | 150° |
| 2026-04-22 15:46 | 35.55683 | 139.77513 | 21 ft | 16 kts | 150° |
| 2026-04-22 15:46 | 35.55592 | 139.77578 | 23 ft | 15 kts | 149° |
| 2026-04-22 15:46 | 35.55502 | 139.77641 | 22 ft | 14 kts | 150° |
| 2026-04-22 15:47 | 35.55417 | 139.77701 | 22 ft | 14 kts | 150° |
| 2026-04-22 15:47 | 35.55335 | 139.77758 | 21 ft | 13 kts | 150° |
| 2026-04-22 15:47 | 35.55257 | 139.77816 | 22 ft | 13 kts | 149° |
| 2026-04-22 15:47 | 35.55181 | 139.77870 | 22 ft | 12 kts | 150° |
| 2026-04-22 15:48 | 35.55107 | 139.77922 | 22 ft | 12 kts | 150° |
| 2026-04-22 15:48 | 35.55035 | 139.77973 | 22 ft | 12 kts | 149° |
| 2026-04-22 15:48 | 35.54946 | 139.78037 | 21 ft | 19 kts | 150° |
| 2026-04-22 15:48 | 35.54825 | 139.78122 | 23 ft | 20 kts | 150° |
| 2026-04-22 15:49 | 35.54705 | 139.78207 | 23 ft | 20 kts | 150° |
| 2026-04-22 15:49 | 35.54623 | 139.78265 | 24 ft | 12 kts | 149° |
| 2026-04-22 15:49 | 35.54607 | 139.78338 | 22 ft | 11 kts | 61° |
| 2026-04-22 15:49 | 35.54646 | 139.78418 | 24 ft | 11 kts | 59° |
| 2026-04-22 15:50 | 35.54659 | 139.78445 | 22 ft | 0 kts | 60° |
| 2026-04-22 15:50 | 35.54659 | 139.78446 | 22 ft | 0 kts | 60° |